createdAt,value
2019-05-22T00:01:56.594Z,9.27
2019-05-22T00:04:28.598Z,10.67
2019-05-22T00:07:00.767Z,9.73
2019-05-22T00:09:42.177Z,10.10
2019-05-22T00:12:20.589Z,10.07
2019-05-22T00:14:52.677Z,8.93
2019-05-22T00:17:30.409Z,8.40
2019-05-22T00:20:01.585Z,5.90
2019-05-22T00:22:33.512Z,7.77
2019-05-22T00:25:05.353Z,5.93
2019-05-22T00:27:35.135Z,7.23
2019-05-22T00:30:06.284Z,11.17
2019-05-22T00:32:36.971Z,6.90
2019-05-22T00:35:08.910Z,8.87
2019-05-22T00:37:40.233Z,7.33
2019-05-22T00:40:12.121Z,8.10
2019-05-22T00:42:45.171Z,7.33
2019-05-22T00:45:15.436Z,8.43
2019-05-22T00:47:44.822Z,7.13
2019-05-22T00:50:20.961Z,6.57
2019-05-22T00:53:00.712Z,6.30
2019-05-22T00:55:52.050Z,7.17
2019-05-22T00:58:30.019Z,8.00
2019-05-22T01:01:12.557Z,8.33
2019-05-22T01:03:43.472Z,9.27
2019-05-22T01:06:15.439Z,12.13
2019-05-22T01:08:48.328Z,10.23
2019-05-22T01:11:21.870Z,10.53
2019-05-22T01:13:51.710Z,11.17
2019-05-22T01:16:22.990Z,14.33
2019-05-22T01:18:53.736Z,10.97
2019-05-22T01:21:25.004Z,13.53
2019-05-22T01:23:58.203Z,16.43
2019-05-22T01:26:29.009Z,13.87
2019-05-22T01:28:59.148Z,16.40
2019-05-22T01:31:37.287Z,18.10
2019-05-22T01:34:12.215Z,19.43
2019-05-22T01:36:47.569Z,22.13
2019-05-22T01:39:36.996Z,23.33
2019-05-22T01:42:08.244Z,20.10
2019-05-22T01:44:37.786Z,23.40
2019-05-22T01:47:13.317Z,22.70
2019-05-22T01:49:51.573Z,22.97
2019-05-22T01:52:21.300Z,23.03
2019-05-22T01:54:52.631Z,24.37
2019-05-22T01:57:24.229Z,24.93
2019-05-22T01:59:55.599Z,22.90
2019-05-22T02:02:26.587Z,24.07
2019-05-22T02:04:58.537Z,26.17
2019-05-22T02:07:30.941Z,26.47
2019-05-22T02:10:02.067Z,25.27
2019-05-22T02:12:41.135Z,28.80
2019-05-22T02:15:12.742Z,27.60
2019-05-22T02:17:42.655Z,22.77
2019-05-22T02:20:14.133Z,27.60
2019-05-22T02:22:44.685Z,25.03
2019-05-22T02:25:14.101Z,26.97
2019-05-22T02:27:44.077Z,27.23
2019-05-22T02:30:14.458Z,24.80
2019-05-22T02:32:45.627Z,26.03
2019-05-22T02:35:15.248Z,27.00
2019-05-22T02:37:45.027Z,28.13
2019-05-22T02:40:19.565Z,26.27
2019-05-22T02:42:50.555Z,27.33
2019-05-22T02:45:19.992Z,25.90
2019-05-22T02:47:50.311Z,26.90
2019-05-22T02:50:19.974Z,25.03
2019-05-22T02:52:50.189Z,31.57
2019-05-22T02:55:19.892Z,27.33
2019-05-22T02:57:50.198Z,27.63
2019-05-22T03:00:19.892Z,29.20
2019-05-22T03:02:52.053Z,27.23
2019-05-22T03:05:22.772Z,31.47
2019-05-22T03:07:52.865Z,33.77
2019-05-22T03:10:25.339Z,30.00
2019-05-22T03:12:56.063Z,33.07
2019-05-22T03:15:25.904Z,38.53
2019-05-22T03:18:01.837Z,37.73
2019-05-22T03:20:33.163Z,34.87
2019-05-22T03:23:12.894Z,40.03
2019-05-22T03:25:43.584Z,39.73
2019-05-22T03:28:13.892Z,42.20
2019-05-22T03:30:45.024Z,37.13
2019-05-22T03:33:15.400Z,41.37
2019-05-22T03:35:51.050Z,41.47
2019-05-22T03:38:22.584Z,42.60
2019-05-22T03:40:53.062Z,44.23
2019-05-22T03:43:24.506Z,42.90
2019-05-22T03:45:56.111Z,43.07
2019-05-22T03:48:27.695Z,45.83
2019-05-22T03:51:00.733Z,47.60
2019-05-22T03:53:30.474Z,45.73
2019-05-22T03:56:00.851Z,44.43
2019-05-22T03:58:31.157Z,42.57
2019-05-22T04:01:03.597Z,53.07
2019-05-22T04:03:33.130Z,53.87
2019-05-22T04:06:04.402Z,53.77
2019-05-22T04:08:34.702Z,51.23
2019-05-22T04:11:07.440Z,52.43
2019-05-22T04:13:36.830Z,52.83
2019-05-22T04:16:09.115Z,52.63
2019-05-22T04:18:40.714Z,51.73
2019-05-22T04:21:10.177Z,48.43
2019-05-22T04:23:40.134Z,44.77
2019-05-22T04:26:12.646Z,51.67
2019-05-22T04:28:51.120Z,46.77
2019-05-22T04:31:31.733Z,46.77
2019-05-22T04:34:01.308Z,50.17
2019-05-22T04:36:30.768Z,51.67
2019-05-22T04:39:02.179Z,46.07
2019-05-22T04:41:32.987Z,46.77
2019-05-22T04:44:05.074Z,45.53
2019-05-22T04:46:34.500Z,43.10
2019-05-22T04:49:04.219Z,44.80
2019-05-22T04:51:33.904Z,41.23
2019-05-22T04:54:03.350Z,45.60
2019-05-22T04:56:32.846Z,46.17
2019-05-22T04:59:03.576Z,48.23
2019-05-22T05:01:33.494Z,41.23
2019-05-22T05:04:02.960Z,45.93
2019-05-22T05:06:35.596Z,47.87
2019-05-22T05:09:08.132Z,42.30
2019-05-22T05:11:38.287Z,38.80
2019-05-22T05:14:07.734Z,46.37
2019-05-22T05:16:37.459Z,42.57
2019-05-22T05:19:07.036Z,44.47
2019-05-22T05:21:38.395Z,49.13
2019-05-22T05:24:08.236Z,44.70
2019-05-22T05:26:39.077Z,47.87
2019-05-22T05:29:15.072Z,47.17
2019-05-22T05:31:44.605Z,47.10
2019-05-22T05:34:23.079Z,43.47
2019-05-22T05:36:52.959Z,45.87
2019-05-22T05:40:03.860Z,43.93
2019-05-22T05:42:33.714Z,46.67
2019-05-22T05:45:03.435Z,44.07
2019-05-22T05:47:32.952Z,46.10
2019-05-22T05:50:03.480Z,48.93
2019-05-22T05:52:34.442Z,50.13
2019-05-22T05:55:04.073Z,46.07
2019-05-22T05:58:30.844Z,45.13
2019-05-22T06:01:11.747Z,53.67
2019-05-22T06:03:42.391Z,55.40
2019-05-22T06:07:00.497Z,47.43
2019-05-22T06:09:29.063Z,47.10
2019-05-22T06:12:05.193Z,42.83
2019-05-22T06:14:35.470Z,49.37
2019-05-22T06:17:44.592Z,46.30
2019-05-22T06:20:19.289Z,42.77
2019-05-22T06:23:44.899Z,50.23
2019-05-22T06:26:34.063Z,39.70
2019-05-22T06:29:05.086Z,39.07
2019-05-22T06:31:41.378Z,38.37
2019-05-22T06:34:11.390Z,39.80
2019-05-22T06:36:41.025Z,37.43
2019-05-22T06:39:17.146Z,30.73
2019-05-22T06:41:48.518Z,38.27
2019-05-22T06:44:36.136Z,38.73
2019-05-22T06:47:08.341Z,35.63
2019-05-22T06:49:40.280Z,37.43
2019-05-22T06:52:11.145Z,41.03
2019-05-22T06:54:40.812Z,40.20
2019-05-22T06:57:15.100Z,40.13
2019-05-22T06:59:46.412Z,42.00
2019-05-22T07:02:19.387Z,36.80
2019-05-22T07:04:49.849Z,38.73
2019-05-22T07:07:20.008Z,36.50
2019-05-22T07:09:50.525Z,39.83
2019-05-22T07:12:23.175Z,39.70
2019-05-22T07:15:28.589Z,36.60
2019-05-22T07:17:58.803Z,41.60
2019-05-22T07:20:32.458Z,37.00
2019-05-22T07:23:03.771Z,40.23
2019-05-22T07:25:35.450Z,39.43
2019-05-22T07:28:07.148Z,37.77
2019-05-22T07:30:36.750Z,36.33
2019-05-22T07:33:06.335Z,43.10
2019-05-22T07:35:56.454Z,41.20
2019-05-22T07:38:07.218Z,40.60
2019-05-22T07:40:37.458Z,45.00
2019-05-22T07:43:07.692Z,39.83
2019-05-22T07:45:39.540Z,44.30
2019-05-22T07:48:10.373Z,42.97
2019-05-22T07:50:48.852Z,45.77
2019-05-22T07:53:18.087Z,46.83
2019-05-22T07:55:50.917Z,42.77
2019-05-22T07:58:20.913Z,42.67
2019-05-22T08:00:56.669Z,43.07
2019-05-22T08:03:27.148Z,40.90
2019-05-22T08:05:58.725Z,40.87
2019-05-22T08:08:31.734Z,38.13
2019-05-22T08:11:01.683Z,37.60
2019-05-22T08:13:32.243Z,38.23
2019-05-22T08:16:02.567Z,43.47
2019-05-22T08:18:34.848Z,37.90
2019-05-22T08:21:04.686Z,37.70
2019-05-22T08:23:34.611Z,40.43
2019-05-22T08:26:04.902Z,38.33
2019-05-22T08:28:34.806Z,35.67
2019-05-22T08:31:06.543Z,32.03
2019-05-22T08:33:39.168Z,31.17
2019-05-22T08:36:09.492Z,32.87
2019-05-22T08:38:39.444Z,33.87
2019-05-22T08:41:10.935Z,32.27
2019-05-22T08:44:11.313Z,33.83
2019-05-22T08:46:13.600Z,29.10
2019-05-22T08:48:47.929Z,30.90
2019-05-22T08:51:18.180Z,28.47
2019-05-22T08:53:48.775Z,32.17
2019-05-22T08:56:19.722Z,32.73
2019-05-22T08:58:49.941Z,30.93
2019-05-22T09:01:19.441Z,30.97
2019-05-22T09:03:49.079Z,33.10
2019-05-22T09:06:18.539Z,34.03
2019-05-22T09:08:48.077Z,33.23
2019-05-22T09:11:17.514Z,33.00
2019-05-22T09:13:46.951Z,35.20
2019-05-22T09:16:16.587Z,33.97
2019-05-22T09:18:46.075Z,33.87
2019-05-22T09:21:15.562Z,33.17
2019-05-22T09:23:45.723Z,34.83
2019-05-22T09:26:15.371Z,35.33
2019-05-22T09:28:45.247Z,34.50
2019-05-22T09:31:14.675Z,37.40
2019-05-22T09:33:44.298Z,34.93
2019-05-22T09:36:14.888Z,37.77
2019-05-22T09:38:44.583Z,38.13
2019-05-22T09:41:14.303Z,38.30
2019-05-22T09:43:43.773Z,38.53
2019-05-22T09:46:13.751Z,33.13
2019-05-22T09:48:43.694Z,36.20
2019-05-22T09:51:13.061Z,31.07
2019-05-22T09:53:43.347Z,34.27
2019-05-22T09:56:13.077Z,32.83
2019-05-22T09:58:42.459Z,28.93
2019-05-22T10:01:12.458Z,30.53
2019-05-22T10:03:42.271Z,34.67
2019-05-22T10:06:12.377Z,29.23
2019-05-22T10:08:41.761Z,30.07
2019-05-22T10:11:12.377Z,28.33
2019-05-22T10:13:42.035Z,26.83
2019-05-22T10:16:11.565Z,28.67
2019-05-22T10:18:41.567Z,26.20
2019-05-22T10:21:11.175Z,29.87
2019-05-22T10:23:40.851Z,31.97
2019-05-22T10:26:10.945Z,29.63
2019-05-22T10:28:40.994Z,26.17
2019-05-22T10:31:11.876Z,28.37
2019-05-22T10:33:41.977Z,28.30
2019-05-22T10:36:11.903Z,26.83
2019-05-22T10:38:41.543Z,29.93
2019-05-22T10:41:11.310Z,25.70
2019-05-22T10:43:40.726Z,28.57
2019-05-22T10:46:10.389Z,30.20
2019-05-22T10:48:40.684Z,27.87
2019-05-22T10:51:10.367Z,32.00
2019-05-22T10:53:39.795Z,26.57
2019-05-22T10:56:09.727Z,26.70
2019-05-22T10:58:39.385Z,28.77
2019-05-22T11:01:09.986Z,27.93
2019-05-22T11:03:39.820Z,29.03
2019-05-22T11:06:09.442Z,31.00
2019-05-22T11:08:39.493Z,28.03
2019-05-22T11:11:09.639Z,30.23
2019-05-22T11:13:40.385Z,24.93
2019-05-22T11:16:10.713Z,29.40
2019-05-22T11:18:40.593Z,31.77
2019-05-22T11:21:10.554Z,28.93
2019-05-22T11:23:51.095Z,28.93
2019-05-22T11:26:11.815Z,25.83
2019-05-22T11:28:42.250Z,28.03
2019-05-22T11:31:11.789Z,28.40
2019-05-22T11:33:41.374Z,32.57
2019-05-22T11:36:11.522Z,34.00
2019-05-22T11:38:41.001Z,30.53
2019-05-22T11:41:11.224Z,32.33
2019-05-22T11:43:40.703Z,31.23
2019-05-22T11:46:10.420Z,30.90
2019-05-22T11:48:40.266Z,27.90
2019-05-22T11:51:10.556Z,30.77
2019-05-22T11:53:39.967Z,28.53
2019-05-22T11:56:09.399Z,30.53
2019-05-22T11:58:39.291Z,27.77
2019-05-22T12:01:11.479Z,32.80
2019-05-22T12:03:43.346Z,28.93
2019-05-22T12:06:13.544Z,30.10
2019-05-22T12:08:43.530Z,29.17
2019-05-22T12:11:16.373Z,33.43
2019-05-22T12:13:47.000Z,27.70
2019-05-22T12:16:16.838Z,28.07
2019-05-22T12:18:46.683Z,28.63
2019-05-22T12:21:16.275Z,30.73
2019-05-22T12:23:45.695Z,28.97
2019-05-22T12:26:15.810Z,27.70
2019-05-22T12:28:45.265Z,31.53
2019-05-22T12:31:15.492Z,28.80
2019-05-22T12:33:45.459Z,27.53
2019-05-22T12:36:14.986Z,27.40
2019-05-22T12:38:44.584Z,27.30
2019-05-22T12:41:14.747Z,23.57
2019-05-22T12:43:45.112Z,27.53
2019-05-22T12:46:14.874Z,27.47
2019-05-22T12:48:45.264Z,31.00
2019-05-22T12:51:15.635Z,25.43
2019-05-22T12:53:45.697Z,26.27
2019-05-22T12:56:15.443Z,30.13
2019-05-22T12:58:46.434Z,26.93
2019-05-22T13:01:16.322Z,26.93
2019-05-22T13:03:48.516Z,29.07
2019-05-22T13:06:18.036Z,26.93
2019-05-22T13:08:47.560Z,26.63
2019-05-22T13:11:17.164Z,28.87
2019-05-22T13:13:47.273Z,23.37
2019-05-22T13:16:17.075Z,24.90
2019-05-22T13:18:47.620Z,26.93
2019-05-22T13:21:20.642Z,27.93
2019-05-22T13:23:51.430Z,22.03
2019-05-22T13:26:23.209Z,23.77
2019-05-22T13:28:54.151Z,23.90
2019-05-22T13:31:23.830Z,22.23
2019-05-22T13:33:55.137Z,23.17
2019-05-22T13:36:24.542Z,22.20
2019-05-22T13:38:54.326Z,21.37
2019-05-22T13:41:23.694Z,20.03
2019-05-22T13:43:54.430Z,19.47
2019-05-22T13:46:24.356Z,18.93
2019-05-22T13:48:53.903Z,20.37
2019-05-22T13:51:23.752Z,18.53
2019-05-22T13:53:53.651Z,15.10
2019-05-22T13:56:25.502Z,21.50
2019-05-22T13:58:56.148Z,18.07
2019-05-22T14:01:26.193Z,17.23
2019-05-22T14:03:55.921Z,18.33
2019-05-22T14:06:25.905Z,18.77
2019-05-22T14:08:55.534Z,19.10
2019-05-22T14:11:24.985Z,23.50
2019-05-22T14:13:55.211Z,19.77
2019-05-22T14:16:24.652Z,19.93
2019-05-22T14:18:54.048Z,20.23
2019-05-22T14:21:23.443Z,21.27
2019-05-22T14:23:52.879Z,18.43
2019-05-22T14:26:22.400Z,17.33
2019-05-22T14:28:52.023Z,16.80
2019-05-22T14:31:22.028Z,14.90
2019-05-22T14:33:51.830Z,15.57
2019-05-22T14:36:21.924Z,16.80
2019-05-22T14:38:52.191Z,15.23
2019-05-22T14:41:21.621Z,13.97
2019-05-22T14:43:51.183Z,13.90
2019-05-22T14:46:20.965Z,12.60
2019-05-22T14:48:50.664Z,12.93
2019-05-22T14:51:21.140Z,14.00
2019-05-22T14:53:52.103Z,12.83
2019-05-22T14:56:22.325Z,15.07
2019-05-22T14:58:51.710Z,12.37
2019-05-22T15:01:22.416Z,13.93
2019-05-22T15:03:52.081Z,13.10
2019-05-22T15:06:21.588Z,11.23
2019-05-22T15:08:51.012Z,12.60
2019-05-22T15:11:20.704Z,13.67
2019-05-22T15:13:50.569Z,11.53
2019-05-22T15:16:20.397Z,12.27
2019-05-22T15:18:49.788Z,10.40
2019-05-22T15:21:19.714Z,11.00
2019-05-22T15:23:50.923Z,11.50
2019-05-22T15:26:20.546Z,11.83
2019-05-22T15:28:50.036Z,11.43
2019-05-22T15:31:19.445Z,12.00
2019-05-22T15:33:48.843Z,11.87
2019-05-22T15:36:21.601Z,13.33
2019-05-22T15:38:51.818Z,11.40
2019-05-22T15:41:21.311Z,13.97
2019-05-22T15:43:53.485Z,12.10
2019-05-22T15:46:24.472Z,10.00
2019-05-22T15:48:55.047Z,12.60
2019-05-22T15:51:28.026Z,12.10
2019-05-22T15:54:00.564Z,13.13
2019-05-22T15:56:31.684Z,11.43
2019-05-22T15:59:05.063Z,15.00
2019-05-22T16:01:36.801Z,12.80
2019-05-22T16:04:07.717Z,11.37
2019-05-22T16:06:38.455Z,12.17
2019-05-22T16:09:10.979Z,11.87
2019-05-22T16:11:41.283Z,11.23
2019-05-22T16:14:11.450Z,13.23
2019-05-22T16:16:41.734Z,10.90
2019-05-22T16:19:11.476Z,12.50
2019-05-22T16:21:46.556Z,11.13
2019-05-22T16:24:16.744Z,11.27
2019-05-22T16:26:48.642Z,12.60
2019-05-22T16:29:18.512Z,10.03
2019-05-22T16:31:48.288Z,11.17
2019-05-22T16:34:19.513Z,11.50
2019-05-22T16:36:49.300Z,11.27
2019-05-22T16:39:21.291Z,11.33
2019-05-22T16:41:51.263Z,13.00
2019-05-22T16:44:21.291Z,12.00
2019-05-22T16:46:51.016Z,11.57
2019-05-22T16:49:20.686Z,11.33
2019-05-22T16:51:51.091Z,12.87
2019-05-22T16:54:21.231Z,11.30
2019-05-22T16:56:51.613Z,12.23
2019-05-22T16:59:22.056Z,12.20
2019-05-22T17:01:59.676Z,12.30
2019-05-22T17:04:22.841Z,13.93
2019-05-22T17:06:52.582Z,12.37
2019-05-22T17:09:23.114Z,12.77
2019-05-22T17:11:52.520Z,11.70
2019-05-22T17:14:23.623Z,12.50
2019-05-22T17:16:53.120Z,12.80
2019-05-22T17:19:27.063Z,13.23
2019-05-22T17:21:54.527Z,14.03
2019-05-22T17:24:24.441Z,11.97
2019-05-22T17:26:54.662Z,12.97
2019-05-22T17:29:25.940Z,13.80
2019-05-22T17:31:55.538Z,13.47
2019-05-22T17:34:37.265Z,13.33
2019-05-22T17:37:14.265Z,13.97
2019-05-22T17:39:48.901Z,12.30
2019-05-22T17:42:21.448Z,14.00
2019-05-22T17:44:52.859Z,14.57
2019-05-22T17:47:24.852Z,12.47
2019-05-22T17:49:54.568Z,13.13
2019-05-22T17:52:24.387Z,11.40
2019-05-22T17:54:54.091Z,14.07
2019-05-22T17:57:24.250Z,13.40
2019-05-22T17:59:53.709Z,11.67
2019-05-22T18:02:26.168Z,13.17
2019-05-22T18:04:55.782Z,11.97
2019-05-22T18:07:26.425Z,14.10
2019-05-22T18:09:56.061Z,14.73
2019-05-22T18:12:26.959Z,12.90
2019-05-22T18:14:56.535Z,19.33
2019-05-22T18:17:26.549Z,13.37
2019-05-22T18:19:56.161Z,11.73
2019-05-22T18:22:26.255Z,12.83
2019-05-22T18:24:55.880Z,13.53
2019-05-22T18:27:25.578Z,12.77
2019-05-22T18:29:55.311Z,13.83
2019-05-22T18:32:24.847Z,16.97
2019-05-22T18:34:54.276Z,12.97
2019-05-22T18:37:23.682Z,12.17
2019-05-22T18:39:53.090Z,13.77
2019-05-22T18:42:22.549Z,17.67
2019-05-22T18:44:52.027Z,15.63
2019-05-22T18:47:21.626Z,17.33
2019-05-22T18:49:51.220Z,16.10
2019-05-22T18:52:20.819Z,19.20
2019-05-22T18:54:50.247Z,17.93
2019-05-22T18:57:20.350Z,21.83
2019-05-22T18:59:49.797Z,29.83
2019-05-22T19:02:19.175Z,18.80
2019-05-22T19:04:48.592Z,15.73
2019-05-22T19:07:17.963Z,20.57
2019-05-22T19:09:47.385Z,17.37
2019-05-22T19:12:17.571Z,17.63
2019-05-22T19:14:47.213Z,17.10
2019-05-22T19:17:16.864Z,18.70
2019-05-22T19:19:46.852Z,27.30
2019-05-22T19:22:16.827Z,24.47
2019-05-22T19:24:46.237Z,21.97
2019-05-22T19:27:15.631Z,16.03
2019-05-22T19:29:45.145Z,18.70
2019-05-22T19:32:15.056Z,17.17
2019-05-22T19:34:44.518Z,19.47
2019-05-22T19:37:13.867Z,17.57
2019-05-22T19:39:43.565Z,22.87
2019-05-22T19:42:13.159Z,20.57
2019-05-22T19:44:42.603Z,19.43
2019-05-22T19:47:12.305Z,20.97
2019-05-22T19:49:43.861Z,19.23
2019-05-22T19:52:14.309Z,23.37
2019-05-22T19:54:43.760Z,22.57
2019-05-22T19:57:13.987Z,22.03
2019-05-22T19:59:43.828Z,25.17
2019-05-22T20:02:15.227Z,18.67
2019-05-22T20:04:45.189Z,22.50
2019-05-22T20:07:15.742Z,21.53
2019-05-22T20:09:45.682Z,21.67
2019-05-22T20:12:15.369Z,21.87
2019-05-22T20:14:45.527Z,21.97
2019-05-22T20:17:15.739Z,21.73
2019-05-22T20:19:45.247Z,30.07
2019-05-22T20:22:14.834Z,25.93
2019-05-22T20:24:44.226Z,26.10
2019-05-22T20:27:14.023Z,25.40
2019-05-22T20:29:43.434Z,26.37
2019-05-22T20:32:15.336Z,29.50
2019-05-22T20:34:44.839Z,23.23
2019-05-22T20:37:14.267Z,27.10
2019-05-22T20:39:44.366Z,27.67
2019-05-22T20:42:14.039Z,24.03
2019-05-22T20:44:43.579Z,26.37
2019-05-22T20:47:13.937Z,24.90
2019-05-22T20:49:46.743Z,25.57
2019-05-22T20:52:16.442Z,24.17
2019-05-22T20:54:47.056Z,25.60
2019-05-22T20:57:20.020Z,21.67
2019-05-22T20:59:48.301Z,23.03
2019-05-22T21:02:19.835Z,30.80
2019-05-22T21:04:51.336Z,30.33
2019-05-22T21:07:26.694Z,26.57
2019-05-22T21:09:56.228Z,24.57
2019-05-22T21:12:27.360Z,29.73
2019-05-22T21:14:57.484Z,25.27
2019-05-22T21:17:28.445Z,34.47
2019-05-22T21:19:58.031Z,24.43
2019-05-22T21:22:27.408Z,26.73
2019-05-22T21:24:57.385Z,25.70
2019-05-22T21:27:27.719Z,27.63
2019-05-22T21:29:57.305Z,26.37
2019-05-22T21:32:27.614Z,25.07
2019-05-22T21:34:57.248Z,26.90
2019-05-22T21:37:26.802Z,25.40
2019-05-22T21:39:56.673Z,39.10
2019-05-22T21:42:27.885Z,29.13
2019-05-22T21:44:57.799Z,28.60
2019-05-22T21:47:27.586Z,25.80
2019-05-22T21:49:57.612Z,25.53
2019-05-22T21:52:28.254Z,26.70
2019-05-22T21:54:57.784Z,22.40
2019-05-22T21:57:27.963Z,23.83
2019-05-22T22:00:00.480Z,26.20
2019-05-22T22:02:37.725Z,23.47
2019-05-22T22:05:08.507Z,23.60
2019-05-22T22:07:37.885Z,25.53
2019-05-22T22:10:07.557Z,25.97
2019-05-22T22:12:37.277Z,28.07
2019-05-22T22:15:08.479Z,25.63
2019-05-22T22:17:38.329Z,27.90
2019-05-22T22:20:08.260Z,27.67
2019-05-22T22:22:38.062Z,26.23
2019-05-22T22:25:08.512Z,24.77
2019-05-22T22:27:38.767Z,27.33
2019-05-22T22:30:15.991Z,26.33
2019-05-22T22:32:46.140Z,29.87
2019-05-22T22:35:16.436Z,28.20
2019-05-22T22:37:46.357Z,26.07
2019-05-22T22:40:18.584Z,22.03
2019-05-22T22:42:49.555Z,25.47
2019-05-22T22:45:24.547Z,22.83
2019-05-22T22:47:54.482Z,22.93
2019-05-22T22:50:25.402Z,24.27
2019-05-22T22:52:56.544Z,25.67
2019-05-22T22:55:26.995Z,26.30
2019-05-22T22:57:56.855Z,25.67
2019-05-22T23:00:34.183Z,23.33
2019-05-22T23:03:04.300Z,24.83
2019-05-22T23:05:36.283Z,25.63
2019-05-22T23:08:05.995Z,24.63
2019-05-22T23:10:36.298Z,24.20
2019-05-22T23:13:07.023Z,29.33
2019-05-22T23:15:37.846Z,24.97
2019-05-22T23:18:07.224Z,24.27
2019-05-22T23:20:36.013Z,23.33
2019-05-22T23:23:04.109Z,26.07
2019-05-22T23:25:34.134Z,23.53
2019-05-22T23:28:05.500Z,20.70
2019-05-22T23:30:35.126Z,22.80
2019-05-22T23:33:04.851Z,22.97
2019-05-22T23:35:34.563Z,23.03
2019-05-22T23:38:04.831Z,24.53
2019-05-22T23:40:35.412Z,22.93
2019-05-22T23:43:05.620Z,23.60
2019-05-22T23:45:35.907Z,23.27
2019-05-22T23:48:14.239Z,20.87
2019-05-22T23:50:44.659Z,22.97
2019-05-22T23:53:16.288Z,22.13
2019-05-22T23:55:46.313Z,22.80
2019-05-22T23:58:17.384Z,20.70
